createdAt,value
2023-09-01T00:02:07.987Z,101295.03
2023-09-01T00:04:34.401Z,101300.66
2023-09-01T00:07:01.255Z,101306.97
2023-09-01T00:09:28.106Z,101306.13
2023-09-01T00:11:54.544Z,101312.56
2023-09-01T00:14:21.008Z,101311.69
2023-09-01T00:16:47.494Z,101313.56
2023-09-01T00:19:13.933Z,101311.81
2023-09-01T00:21:40.990Z,101307.22
2023-09-01T00:24:08.175Z,101309.06
2023-09-01T00:26:34.639Z,101296.44
2023-09-01T00:29:01.039Z,101302.88
2023-09-01T00:31:27.545Z,101304.75
2023-09-01T00:33:54.007Z,101301.09
2023-09-01T00:36:20.468Z,101296.66
2023-09-01T00:38:46.935Z,101316.63
2023-09-01T00:41:13.341Z,101304.97
2023-09-01T00:43:39.800Z,101309.56
2023-09-01T00:46:06.407Z,101309.56
2023-09-01T00:48:33.362Z,101306.81
2023-09-01T00:51:00.137Z,101306.09
2023-09-01T00:53:27.141Z,101300.63
2023-09-01T00:55:56.141Z,101308.94
2023-09-01T00:58:22.785Z,101317.03
2023-09-01T01:03:33.321Z,101309.09
2023-09-01T01:06:42.920Z,101304.63
2023-09-01T01:09:16.830Z,101311.94
2023-09-01T01:11:52.402Z,101318.25
2023-09-01T01:14:41.942Z,101324.72
2023-09-01T01:17:09.871Z,101316.53
2023-09-01T01:19:42.985Z,101314.91
2023-09-01T01:22:09.674Z,101316.78
2023-09-01T01:24:36.994Z,101323.13
2023-09-01T01:27:03.641Z,101324.97
2023-09-01T01:29:30.053Z,101328.69
2023-09-01T01:31:58.749Z,101323.22
2023-09-01T01:34:38.853Z,101327.81
2023-09-01T01:37:31.097Z,101326.97
2023-09-01T01:40:01.039Z,101318.78
2023-09-01T01:42:30.694Z,101317.16
2023-09-01T01:44:58.962Z,101317.16
2023-09-01T01:47:26.105Z,101319.00
2023-09-01T01:49:52.571Z,101318.16
2023-09-01T01:52:19.095Z,101320.03
2023-09-01T01:54:45.490Z,101321.88
2023-09-01T01:57:15.480Z,101325.59
2023-09-01T01:59:42.907Z,101319.25
2023-09-01T02:02:09.439Z,101325.75
2023-09-01T02:04:36.683Z,101322.13
2023-09-01T02:07:06.589Z,101320.38
2023-09-01T02:09:34.208Z,101322.25
2023-09-01T02:12:00.727Z,101322.25
2023-09-01T02:14:27.171Z,101320.50
2023-09-01T02:16:54.032Z,101323.22
2023-09-01T02:19:20.603Z,101324.25
2023-09-01T02:21:47.075Z,101331.56
2023-09-01T02:24:13.629Z,101322.50
2023-09-01T02:26:40.144Z,101324.34
2023-09-01T02:29:06.696Z,101331.66
2023-09-01T02:31:33.254Z,101324.50
2023-09-01T02:33:59.697Z,101326.34
2023-09-01T02:36:31.388Z,101322.75
2023-09-01T02:38:58.749Z,101319.16
2023-09-01T02:41:26.417Z,101320.13
2023-09-01T02:43:54.348Z,101321.16
2023-09-01T02:46:21.429Z,101319.25
2023-09-01T02:48:48.172Z,101312.97
2023-09-01T02:51:14.632Z,101310.34
2023-09-01T02:53:41.034Z,101321.25
2023-09-01T02:56:08.727Z,101315.91
2023-09-01T02:58:36.405Z,101314.06
2023-09-01T03:01:10.324Z,101315.06
2023-09-01T03:03:39.109Z,101317.81
2023-09-01T03:06:11.952Z,101309.72
2023-09-01T03:08:39.576Z,101310.59
2023-09-01T03:11:06.655Z,101303.41
2023-09-01T03:13:33.251Z,101302.53
2023-09-01T03:15:59.782Z,101297.22
2023-09-01T03:18:26.381Z,101290.88
2023-09-01T03:20:56.611Z,101287.28
2023-09-01T03:23:23.282Z,101284.56
2023-09-01T03:25:58.993Z,101280.06
2023-09-01T03:28:25.436Z,101288.25
2023-09-01T03:30:51.948Z,101294.75
2023-09-01T03:33:19.255Z,101290.13
2023-09-01T03:35:45.660Z,101283.81
2023-09-01T03:38:12.671Z,101283.06
2023-09-01T03:40:39.419Z,101283.94
2023-09-01T03:43:08.676Z,101285.78
2023-09-01T03:45:35.306Z,101278.59
2023-09-01T03:48:02.171Z,101282.19
2023-09-01T03:50:28.736Z,101280.34
2023-09-01T03:52:55.163Z,101283.19
2023-09-01T03:55:21.667Z,101278.59
2023-09-01T03:57:48.094Z,101276.88
2023-09-01T04:00:15.114Z,101281.47
2023-09-01T04:02:41.711Z,101280.59
2023-09-01T04:05:08.271Z,101275.13
2023-09-01T04:07:34.625Z,101275.13
2023-09-01T04:10:03.940Z,101278.84
2023-09-01T04:12:31.473Z,101275.25
2023-09-01T04:14:57.888Z,101277.97
2023-09-01T04:17:24.271Z,101279.84
2023-09-01T04:19:50.724Z,101284.28
2023-09-01T04:22:17.109Z,101286.16
2023-09-01T04:24:44.257Z,101292.63
2023-09-01T04:27:10.811Z,101288.16
2023-09-01T04:29:39.551Z,101284.44
2023-09-01T04:32:06.128Z,101286.28
2023-09-01T04:34:33.795Z,101284.56
2023-09-01T04:37:00.248Z,101279.97
2023-09-01T04:39:26.871Z,101276.38
2023-09-01T04:41:53.249Z,101272.75
2023-09-01T04:44:19.710Z,101274.63
2023-09-01T04:46:46.139Z,101272.75
2023-09-01T04:49:12.558Z,101278.22
2023-09-01T04:51:39.068Z,101272.91
2023-09-01T04:54:05.647Z,101280.22
2023-09-01T04:56:33.920Z,101289.13
2023-09-01T04:59:00.351Z,101288.25
2023-09-01T05:01:26.876Z,101292.88
2023-09-01T05:03:53.360Z,101299.19
2023-09-01T05:06:19.866Z,101309.25
2023-09-01T05:08:46.277Z,101302.91
2023-09-01T05:11:12.744Z,101304.78
2023-09-01T05:13:39.250Z,101301.16
2023-09-01T05:16:08.446Z,101308.38
2023-09-01T05:18:34.884Z,101302.91
2023-09-01T05:21:01.344Z,101296.59
2023-09-01T05:23:32.286Z,101303.91
2023-09-01T05:25:58.815Z,101304.78
2023-09-01T05:28:25.260Z,101303.91
2023-09-01T05:30:51.694Z,101295.72
2023-09-01T05:33:18.218Z,101306.63
2023-09-01T05:35:44.669Z,101303.91
2023-09-01T05:38:11.193Z,101302.03
2023-09-01T05:40:38.801Z,101303.91
2023-09-01T05:43:05.339Z,101310.22
2023-09-01T05:45:31.794Z,101302.03
2023-09-01T05:47:58.300Z,101295.72
2023-09-01T05:50:24.749Z,101295.72
2023-09-01T05:52:51.214Z,101292.00
2023-09-01T05:55:18.079Z,101295.72
2023-09-01T05:57:44.502Z,101292.00
2023-09-01T06:00:11.400Z,101292.88
2023-09-01T06:02:37.982Z,101288.25
2023-09-01T06:05:06.200Z,101286.41
2023-09-01T06:07:32.653Z,101290.00
2023-09-01T06:09:59.784Z,101295.47
2023-09-01T06:12:26.369Z,101292.72
2023-09-01T06:14:52.856Z,101298.09
2023-09-01T06:17:20.927Z,101294.47
2023-09-01T06:19:50.996Z,101300.81
2023-09-01T06:22:17.542Z,101302.66
2023-09-01T06:24:43.955Z,101308.84
2023-09-01T06:27:10.478Z,101308.84
2023-09-01T06:29:36.946Z,101310.59
2023-09-01T06:32:04.089Z,101313.31
2023-09-01T06:34:30.579Z,101314.31
2023-09-01T06:36:57.737Z,101317.91
2023-09-01T06:39:24.101Z,101313.31
2023-09-01T06:41:50.495Z,101322.38
2023-09-01T06:44:16.997Z,101318.69
2023-09-01T06:46:43.531Z,101313.22
2023-09-01T06:49:09.955Z,101310.50
2023-09-01T06:51:36.376Z,101314.94
2023-09-01T06:54:02.897Z,101316.69
2023-09-01T06:56:29.481Z,101323.00
2023-09-01T06:58:55.988Z,101323.00
2023-09-01T07:01:22.808Z,101326.59
2023-09-01T07:03:49.603Z,101327.47
2023-09-01T07:06:16.112Z,101325.75
2023-09-01T07:08:42.668Z,101325.59
2023-09-01T07:11:13.732Z,101320.13
2023-09-01T07:13:40.253Z,101316.56
2023-09-01T07:16:07.804Z,101311.94
2023-09-01T07:18:34.823Z,101321.00
2023-09-01T07:21:01.791Z,101317.41
2023-09-01T07:23:28.869Z,101318.16
2023-09-01T07:25:56.291Z,101320.03
2023-09-01T07:28:23.638Z,101315.44
2023-09-01T07:30:50.179Z,101315.28
2023-09-01T07:33:17.387Z,101312.56
2023-09-01T07:35:50.882Z,101316.16
2023-09-01T07:38:18.148Z,101307.97
2023-09-01T07:40:45.459Z,101314.31
2023-09-01T07:43:12.161Z,101305.25
2023-09-01T07:45:40.645Z,101303.41
2023-09-01T07:48:20.455Z,101294.22
2023-09-01T07:50:48.016Z,101290.50
2023-09-01T07:53:14.450Z,101295.09
2023-09-01T07:55:40.926Z,101290.50
2023-09-01T07:58:07.360Z,101298.69
2023-09-01T08:00:33.921Z,101294.97
2023-09-01T08:03:00.514Z,101305.00
2023-09-01T08:05:27.000Z,101307.72
2023-09-01T08:07:54.452Z,101305.75
2023-09-01T08:10:21.162Z,101304.88
2023-09-01T08:12:47.763Z,101313.06
2023-09-01T08:15:14.209Z,101311.22
2023-09-01T08:17:40.763Z,101313.94
2023-09-01T08:20:08.126Z,101319.25
2023-09-01T08:22:34.564Z,101321.16
2023-09-01T08:25:01.052Z,101331.06
2023-09-01T08:27:28.957Z,101323.75
2023-09-01T08:29:57.431Z,101325.47
2023-09-01T08:32:23.894Z,101328.22
2023-09-01T08:34:50.309Z,101320.91
2023-09-01T08:37:18.156Z,101327.22
2023-09-01T08:39:44.998Z,101325.34
2023-09-01T08:42:12.957Z,101319.03
2023-09-01T08:44:41.462Z,101330.81
2023-09-01T08:47:10.202Z,101326.22
2023-09-01T08:49:36.739Z,101323.47
2023-09-01T08:52:04.271Z,101326.97
2023-09-01T08:54:31.652Z,101335.16
2023-09-01T08:56:58.075Z,101334.28
2023-09-01T08:59:26.170Z,101333.31
2023-09-01T09:01:52.661Z,101332.28
2023-09-01T09:04:19.175Z,101334.16
2023-09-01T09:06:46.647Z,101326.97
2023-09-01T09:09:15.890Z,101324.97
2023-09-01T09:11:56.841Z,101325.97
2023-09-01T09:14:23.604Z,101332.28
2023-09-01T09:16:55.194Z,101333.16
2023-09-01T09:19:22.525Z,101330.44
2023-09-01T09:21:49.390Z,101327.69
2023-09-01T09:24:33.623Z,101331.19
2023-09-01T09:27:00.168Z,101332.19
2023-09-01T09:29:26.745Z,101335.78
2023-09-01T09:31:53.497Z,101333.06
2023-09-01T09:34:26.750Z,101336.66
2023-09-01T09:36:53.330Z,101335.78
2023-09-01T09:39:24.905Z,101345.69
2023-09-01T09:41:51.919Z,101353.03
2023-09-01T09:44:27.327Z,101360.22
2023-09-01T09:46:55.527Z,101361.06
2023-09-01T09:49:23.316Z,101355.63
2023-09-01T09:51:52.953Z,101359.22
2023-09-01T09:54:24.862Z,101360.22
2023-09-01T09:56:53.265Z,101359.34
2023-09-01T09:59:34.004Z,101357.47
2023-09-01T10:02:07.214Z,101363.81
2023-09-01T10:04:35.804Z,101372.00
2023-09-01T10:07:03.609Z,101372.00
2023-09-01T10:09:31.478Z,101379.31
2023-09-01T10:11:59.357Z,101377.47
2023-09-01T10:14:27.874Z,101382.03
2023-09-01T10:16:54.625Z,101379.31
2023-09-01T10:19:22.497Z,101380.31
2023-09-01T10:21:49.071Z,101378.44
2023-09-01T10:24:17.457Z,101385.66
2023-09-01T10:26:44.809Z,101383.78
2023-09-01T10:29:12.109Z,101383.91
2023-09-01T10:31:38.641Z,101382.03
2023-09-01T10:34:09.688Z,101386.63
2023-09-01T10:36:37.329Z,101384.78
2023-09-01T10:39:25.300Z,101389.34
2023-09-01T10:42:04.014Z,101391.09
2023-09-01T10:44:45.863Z,101383.78
2023-09-01T10:47:36.388Z,101393.72
2023-09-01T10:50:05.592Z,101387.25
2023-09-01T10:52:32.939Z,101377.34
2023-09-01T10:55:06.999Z,101378.06
2023-09-01T10:57:44.670Z,101368.13
2023-09-01T11:00:32.203Z,101372.63
2023-09-01T11:03:31.602Z,101369.63
2023-09-01T11:06:07.015Z,101366.91
2023-09-01T11:08:33.604Z,101369.53
2023-09-01T11:11:10.950Z,101372.25
2023-09-01T11:13:37.713Z,101373.13
2023-09-01T11:16:12.639Z,101378.59
2023-09-01T11:18:39.353Z,101365.81
2023-09-01T11:21:09.220Z,101376.72
2023-09-01T11:23:35.964Z,101377.56
2023-09-01T11:26:04.505Z,101383.03
2023-09-01T11:28:31.064Z,101377.56
2023-09-01T11:31:04.487Z,101387.50
2023-09-01T11:33:37.634Z,101392.97
2023-09-01T11:36:11.765Z,101391.97
2023-09-01T11:38:40.332Z,101385.66
2023-09-01T11:41:13.228Z,101392.84
2023-09-01T11:43:41.548Z,101398.31
2023-09-01T11:46:09.052Z,101404.66
2023-09-01T11:48:35.697Z,101400.91
2023-09-01T11:51:02.305Z,101402.66
2023-09-01T11:53:30.261Z,101412.44
2023-09-01T11:56:02.360Z,101407.84
2023-09-01T11:58:34.648Z,101399.56
2023-09-01T12:01:12.392Z,101408.63
2023-09-01T12:03:39.240Z,101413.06
2023-09-01T12:06:22.324Z,101407.53
2023-09-01T12:08:50.374Z,101417.31
2023-09-01T12:11:18.929Z,101417.31
2023-09-01T12:13:47.815Z,101420.94
2023-09-01T12:16:24.879Z,101414.59
2023-09-01T12:18:54.022Z,101420.94
2023-09-01T12:21:20.599Z,101438.19
2023-09-01T12:23:47.838Z,101436.31
2023-09-01T12:26:15.327Z,101439.06
2023-09-01T12:28:43.279Z,101443.66
2023-09-01T12:31:11.265Z,101438.19
2023-09-01T12:33:38.355Z,101444.53
2023-09-01T12:36:06.090Z,101442.78
2023-09-01T12:38:32.917Z,101445.50
2023-09-01T12:40:59.507Z,101449.97
2023-09-01T12:43:26.025Z,101446.22
2023-09-01T12:45:52.470Z,101448.13
2023-09-01T12:48:19.017Z,101458.03
2023-09-01T12:50:47.775Z,101466.84
2023-09-01T12:53:15.944Z,101461.13
2023-09-01T12:55:42.821Z,101461.03
2023-09-01T12:58:09.939Z,101462.50
2023-09-01T13:00:36.556Z,101463.13
2023-09-01T13:03:03.401Z,101465.50
2023-09-01T13:05:31.059Z,101460.75
2023-09-01T13:07:58.649Z,101466.97
2023-09-01T13:10:25.130Z,101465.00
2023-09-01T13:12:51.564Z,101455.81
2023-09-01T13:15:18.105Z,101462.00
2023-09-01T13:17:46.233Z,101467.34
2023-09-01T13:20:15.760Z,101469.06
2023-09-01T13:22:42.907Z,101473.53
2023-09-01T13:25:10.176Z,101478.03
2023-09-01T13:27:36.664Z,101471.69
2023-09-01T13:30:03.539Z,101477.88
2023-09-01T13:32:30.074Z,101476.91
2023-09-01T13:34:56.549Z,101471.44
2023-09-01T13:37:23.502Z,101471.44
2023-09-01T13:39:55.570Z,101474.91
2023-09-01T13:42:26.741Z,101482.97
2023-09-01T13:44:57.697Z,101475.66
2023-09-01T13:47:25.135Z,101490.91
2023-09-01T13:49:52.842Z,101496.38
2023-09-01T13:52:20.320Z,101490.91
2023-09-01T13:54:49.655Z,101483.59
2023-09-01T13:57:16.245Z,101495.41
2023-09-01T13:59:42.748Z,101495.28
2023-09-01T14:02:09.268Z,101488.94
2023-09-01T14:04:35.730Z,101496.00
2023-09-01T14:07:03.474Z,101496.00
2023-09-01T14:09:29.972Z,101497.75
2023-09-01T14:11:56.399Z,101498.75
2023-09-01T14:14:22.907Z,101503.22
2023-09-01T14:16:49.520Z,101498.88
2023-09-01T14:19:16.390Z,101499.72
2023-09-01T14:21:42.948Z,101504.09
2023-09-01T14:24:15.093Z,101503.69
2023-09-01T14:26:52.892Z,101503.59
2023-09-01T14:29:19.658Z,101500.72
2023-09-01T14:31:46.346Z,101506.19
2023-09-01T14:34:14.041Z,101498.75
2023-09-01T14:36:40.660Z,101506.06
2023-09-01T14:39:07.666Z,101501.22
2023-09-01T14:41:34.264Z,101493.97
2023-09-01T14:44:00.824Z,101492.81
2023-09-01T14:46:27.455Z,101491.34
2023-09-01T14:48:53.926Z,101482.31
2023-09-01T14:51:20.322Z,101478.75
2023-09-01T14:53:49.076Z,101471.66
2023-09-01T14:56:16.081Z,101477.75
2023-09-01T14:58:42.512Z,101477.78
2023-09-01T15:01:08.956Z,101475.69
2023-09-01T15:03:35.638Z,101471.59
2023-09-01T15:06:02.231Z,101476.63
2023-09-01T15:08:28.711Z,101484.28
2023-09-01T15:10:56.219Z,101487.84
2023-09-01T15:13:23.502Z,101487.75
2023-09-01T15:15:50.391Z,101488.13
2023-09-01T15:18:17.600Z,101491.13
2023-09-01T15:20:44.148Z,101491.41
2023-09-01T15:23:10.757Z,101493.72
2023-09-01T15:25:39.087Z,101484.16
2023-09-01T15:28:05.963Z,101496.19
2023-09-01T15:30:32.807Z,101491.69
2023-09-01T15:32:59.250Z,101484.22
2023-09-01T15:35:28.102Z,101487.38
2023-09-01T15:37:58.853Z,101495.72
2023-09-01T15:40:25.653Z,101493.09
2023-09-01T15:42:56.588Z,101491.63
2023-09-01T15:45:24.121Z,101482.41
2023-09-01T15:47:51.391Z,101485.97
2023-09-01T15:50:22.730Z,101484.81
2023-09-01T15:52:54.676Z,101491.16
2023-09-01T15:55:21.148Z,101489.69
2023-09-01T15:57:47.627Z,101495.47
2023-09-01T16:00:14.294Z,101489.69
2023-09-01T16:02:40.793Z,101489.09
2023-09-01T16:05:07.509Z,101481.16
2023-09-01T16:07:34.017Z,101486.03
2023-09-01T16:10:00.470Z,101489.91
2023-09-01T16:12:27.737Z,101482.97
2023-09-01T16:14:54.520Z,101485.94
2023-09-01T16:17:20.974Z,101482.38
2023-09-01T16:19:47.411Z,101490.72
2023-09-01T16:22:14.012Z,101490.00
2023-09-01T16:24:40.504Z,101503.81
2023-09-01T16:27:08.677Z,101495.88
2023-09-01T16:29:35.313Z,101487.06
2023-09-01T16:32:02.110Z,101491.09
2023-09-01T16:34:28.549Z,101492.50
2023-09-01T16:36:55.008Z,101504.75
2023-09-01T16:39:21.469Z,101505.16
2023-09-01T16:41:47.954Z,101500.94
2023-09-01T16:44:14.653Z,101498.47
2023-09-01T16:46:41.184Z,101507.84
2023-09-01T16:49:08.858Z,101509.81
2023-09-01T16:51:35.327Z,101506.47
2023-09-01T16:54:01.971Z,101511.38
2023-09-01T16:56:28.749Z,101492.47
2023-09-01T16:58:55.203Z,101510.03
2023-09-01T17:01:21.895Z,101514.03
2023-09-01T17:03:48.401Z,101526.16
2023-09-01T17:06:14.819Z,101525.41
2023-09-01T17:08:48.718Z,101520.19
2023-09-01T17:11:16.720Z,101521.31
2023-09-01T17:13:43.193Z,101523.28
2023-09-01T17:16:09.739Z,101529.91
2023-09-01T17:18:36.772Z,101526.44
2023-09-01T17:21:05.505Z,101532.91
2023-09-01T17:23:31.955Z,101532.31
2023-09-01T17:25:58.744Z,101527.81
2023-09-01T17:28:25.166Z,101525.34
2023-09-01T17:30:51.745Z,101534.53
2023-09-01T17:33:18.518Z,101534.69
2023-09-01T17:35:45.625Z,101538.56
2023-09-01T17:38:12.592Z,101545.16
2023-09-01T17:40:43.035Z,101536.34
2023-09-01T17:43:09.770Z,101536.34
2023-09-01T17:45:36.289Z,101544.81
2023-09-01T17:48:03.089Z,101541.34
2023-09-01T17:50:29.590Z,101551.53
2023-09-01T17:52:55.991Z,101553.56
2023-09-01T17:55:22.604Z,101554.69
2023-09-01T17:57:49.153Z,101555.69
2023-09-01T18:00:15.813Z,101561.28
2023-09-01T18:02:42.636Z,101564.28
2023-09-01T18:05:09.854Z,101560.66
2023-09-01T18:07:36.372Z,101562.66
2023-09-01T18:10:03.558Z,101565.53
2023-09-01T18:12:30.180Z,101573.72
2023-09-01T18:14:56.878Z,101573.88
2023-09-01T18:17:23.789Z,101580.44
2023-09-01T18:19:50.496Z,101578.72
2023-09-01T18:22:16.936Z,101581.56
2023-09-01T18:24:43.380Z,101579.00
2023-09-01T18:27:24.670Z,101587.31
2023-09-01T18:29:51.642Z,101590.91
2023-09-01T18:32:18.120Z,101591.91
2023-09-01T18:34:45.054Z,101598.38
2023-09-01T18:37:17.642Z,101610.31
2023-09-01T18:39:44.129Z,101609.44
2023-09-01T18:42:34.731Z,101620.50
2023-09-01T18:45:02.786Z,101627.00
2023-09-01T18:47:29.697Z,101634.34
2023-09-01T18:49:56.369Z,101638.94
2023-09-01T18:52:22.921Z,101644.50
2023-09-01T18:54:49.297Z,101640.91
2023-09-01T18:57:16.499Z,101637.31
2023-09-01T18:59:43.247Z,101647.38
2023-09-01T19:02:46.853Z,101648.38
2023-09-01T19:05:33.828Z,101648.47
2023-09-01T19:08:22.952Z,101646.78
2023-09-01T19:10:51.305Z,101644.91
2023-09-01T19:13:20.225Z,101662.16
2023-09-01T19:15:58.164Z,101664.16
2023-09-01T19:18:31.557Z,101667.88
2023-09-01T19:21:01.549Z,101677.94
2023-09-01T19:23:34.705Z,101675.22
2023-09-01T19:26:04.647Z,101669.75
2023-09-01T19:28:37.848Z,101673.50
2023-09-01T19:31:07.384Z,101666.28
2023-09-01T19:33:36.424Z,101684.44
2023-09-01T19:36:03.430Z,101678.19
2023-09-01T19:38:30.470Z,101681.81
2023-09-01T19:40:59.570Z,101684.69
2023-09-01T19:43:27.469Z,101682.94
2023-09-01T19:45:55.094Z,101688.41
2023-09-01T19:48:22.648Z,101685.66
2023-09-01T19:50:49.378Z,101681.19
2023-09-01T19:53:27.499Z,101693.13
2023-09-01T19:56:01.658Z,101708.69
2023-09-01T19:58:31.652Z,101722.34
2023-09-01T20:00:59.481Z,101731.53
2023-09-01T20:03:30.054Z,101719.69
2023-09-01T20:05:56.871Z,101718.81
2023-09-01T20:08:25.864Z,101718.97
2023-09-01T20:10:52.272Z,101723.41
2023-09-01T20:13:18.875Z,101717.06
2023-09-01T20:15:49.157Z,101720.81
2023-09-01T20:18:18.271Z,101721.81
2023-09-01T20:20:47.957Z,101723.66
2023-09-01T20:23:14.934Z,101723.66
2023-09-01T20:25:43.735Z,101721.06
2023-09-01T20:28:11.347Z,101724.63
2023-09-01T20:30:37.893Z,101720.19
2023-09-01T20:33:04.820Z,101720.19
2023-09-01T20:35:31.405Z,101724.78
2023-09-01T20:37:57.985Z,101730.25
2023-09-01T20:40:24.790Z,101729.38
2023-09-01T20:42:53.429Z,101734.84
2023-09-01T20:45:19.950Z,101738.56
2023-09-01T20:47:46.449Z,101748.63
2023-09-01T20:50:12.918Z,101745.16
2023-09-01T20:52:40.591Z,101746.03
2023-09-01T20:55:09.266Z,101743.41
2023-09-01T20:57:40.720Z,101738.94
2023-09-01T21:00:09.610Z,101741.69
2023-09-01T21:02:36.176Z,101736.22
2023-09-01T21:05:05.616Z,101746.28
2023-09-01T21:07:36.524Z,101763.66
2023-09-01T21:10:05.133Z,101769.13
2023-09-01T21:12:31.562Z,101774.59
2023-09-01T21:14:58.807Z,101762.94
2023-09-01T21:17:25.897Z,101771.97
2023-09-01T21:19:53.026Z,101774.69
2023-09-01T21:22:20.365Z,101776.59
2023-09-01T21:24:46.907Z,101784.78
2023-09-01T21:27:13.541Z,101783.03
2023-09-01T21:29:40.404Z,101774.84
2023-09-01T21:32:07.261Z,101771.88
2023-09-01T21:34:34.165Z,101768.25
2023-09-01T21:37:01.834Z,101772.97
2023-09-01T21:39:28.911Z,101773.09
2023-09-01T21:41:55.303Z,101771.34
2023-09-01T21:44:21.920Z,101767.75
2023-09-01T21:46:48.354Z,101774.22
2023-09-01T21:49:15.986Z,101777.81
2023-09-01T21:51:43.538Z,101776.06
2023-09-01T21:54:09.945Z,101786.03
2023-09-01T21:56:36.381Z,101781.53
2023-09-01T21:59:04.599Z,101779.78
2023-09-01T22:01:33.313Z,101774.31
2023-09-01T22:04:01.149Z,101780.78
2023-09-01T22:06:27.814Z,101786.25
2023-09-01T22:08:54.245Z,101786.25
2023-09-01T22:11:20.712Z,101784.50
2023-09-01T22:13:48.078Z,101789.09
2023-09-01T22:16:14.583Z,101782.75
2023-09-01T22:18:41.088Z,101792.97
2023-09-01T22:21:08.887Z,101782.91
2023-09-01T22:23:35.376Z,101789.34
2023-09-01T22:26:02.302Z,101806.63
2023-09-01T22:28:29.825Z,101802.13
2023-09-01T22:30:56.565Z,101805.84
2023-09-01T22:33:23.115Z,101808.59
2023-09-01T22:35:49.622Z,101794.91
2023-09-01T22:38:18.448Z,101798.66
2023-09-01T22:40:46.051Z,101798.66
2023-09-01T22:43:13.605Z,101799.66
2023-09-01T22:45:40.056Z,101803.34
2023-09-01T22:48:06.766Z,101797.16
2023-09-01T22:50:33.248Z,101803.50
2023-09-01T22:52:59.633Z,101802.63
2023-09-01T22:55:28.726Z,101796.38
2023-09-01T22:57:56.578Z,101797.41
2023-09-01T23:00:23.523Z,101797.41
2023-09-01T23:02:50.039Z,101795.66
2023-09-01T23:05:16.679Z,101802.97
2023-09-01T23:07:43.171Z,101799.34
2023-09-01T23:10:10.476Z,101803.06
2023-09-01T23:12:36.911Z,101799.59
2023-09-01T23:15:04.678Z,101801.34
2023-09-01T23:17:32.517Z,101802.31
2023-09-01T23:19:58.977Z,101810.53
2023-09-01T23:22:27.757Z,101807.03
2023-09-01T23:24:54.412Z,101803.44
2023-09-01T23:27:20.941Z,101799.84
2023-09-01T23:29:47.384Z,101804.44
2023-09-01T23:32:13.866Z,101809.00
2023-09-01T23:34:40.894Z,101815.47
2023-09-01T23:37:07.656Z,101822.78
2023-09-01T23:39:34.385Z,101821.06
2023-09-01T23:42:00.931Z,101829.25
2023-09-01T23:44:27.508Z,101815.69
2023-09-01T23:46:54.167Z,101821.16
2023-09-01T23:49:20.750Z,101821.28
2023-09-01T23:51:47.242Z,101824.03
2023-09-01T23:54:13.782Z,101827.75
2023-09-01T23:56:40.298Z,101834.19
2023-09-01T23:59:06.839Z,101826.97
